sensor_id;sensor_type;location;lat;lon;timestamp;P1;durP1;ratioP1;P2;durP2;ratioP2
36547;SDS011;22551;52.206;4.856;2024-03-22T00:04:31;48.10;;;21.20;;
36547;SDS011;22551;52.206;4.856;2024-03-22T01:23:49;43.65;;;16.92;;
36547;SDS011;22551;52.206;4.856;2024-03-22T01:28:52;38.30;;;15.70;;
36547;SDS011;22551;52.206;4.856;2024-03-22T02:54:15;34.97;;;14.35;;
36547;SDS011;22551;52.206;4.856;2024-03-22T02:59:18;35.78;;;13.07;;
36547;SDS011;22551;52.206;4.856;2024-03-22T03:09:31;31.77;;;13.68;;
36547;SDS011;22551;52.206;4.856;2024-03-22T03:14:33;33.40;;;13.27;;
36547;SDS011;22551;52.206;4.856;2024-03-22T03:19:36;36.33;;;13.40;;
36547;SDS011;22551;52.206;4.856;2024-03-22T03:24:39;34.63;;;13.48;;
36547;SDS011;22551;52.206;4.856;2024-03-22T03:29:41;27.13;;;12.70;;
36547;SDS011;22551;52.206;4.856;2024-03-22T03:34:43;29.58;;;12.13;;
36547;SDS011;22551;52.206;4.856;2024-03-22T03:39:47;32.08;;;12.52;;
36547;SDS011;22551;52.206;4.856;2024-03-22T03:44:49;38.47;;;13.07;;
36547;SDS011;22551;52.206;4.856;2024-03-22T03:49:51;29.98;;;12.20;;
36547;SDS011;22551;52.206;4.856;2024-03-22T03:54:55;33.28;;;12.80;;
36547;SDS011;22551;52.206;4.856;2024-03-22T03:59:58;33.10;;;12.75;;
36547;SDS011;22551;52.206;4.856;2024-03-22T04:05:00;38.13;;;13.35;;
36547;SDS011;22551;52.206;4.856;2024-03-22T04:10:04;30.45;;;13.23;;
36547;SDS011;22551;52.206;4.856;2024-03-22T04:15:07;31.70;;;11.77;;
36547;SDS011;22551;52.206;4.856;2024-03-22T04:20:10;31.05;;;11.68;;
36547;SDS011;22551;52.206;4.856;2024-03-22T04:25:14;29.73;;;11.10;;
36547;SDS011;22551;52.206;4.856;2024-03-22T04:30:17;30.08;;;10.50;;
36547;SDS011;22551;52.206;4.856;2024-03-22T04:35:19;25.00;;;10.85;;
36547;SDS011;22551;52.206;4.856;2024-03-22T04:40:22;34.90;;;10.80;;
36547;SDS011;22551;52.206;4.856;2024-03-22T04:45:24;27.65;;;10.40;;
36547;SDS011;22551;52.206;4.856;2024-03-22T04:50:27;24.50;;;9.13;;
36547;SDS011;22551;52.206;4.856;2024-03-22T04:55:31;29.25;;;9.20;;
36547;SDS011;22551;52.206;4.856;2024-03-22T05:00:33;29.85;;;9.35;;
36547;SDS011;22551;52.206;4.856;2024-03-22T05:05:35;30.27;;;9.75;;
36547;SDS011;22551;52.206;4.856;2024-03-22T05:10:40;22.55;;;8.57;;
36547;SDS011;22551;52.206;4.856;2024-03-22T05:15:42;21.00;;;8.88;;
36547;SDS011;22551;52.206;4.856;2024-03-22T05:20:44;19.30;;;7.95;;
36547;SDS011;22551;52.206;4.856;2024-03-22T05:25:47;21.45;;;7.60;;
36547;SDS011;22551;52.206;4.856;2024-03-22T07:53:17;17.55;;;5.95;;
36547;SDS011;22551;52.206;4.856;2024-03-22T07:58:19;22.92;;;6.35;;
36547;SDS011;22551;52.206;4.856;2024-03-22T08:03:22;19.23;;;5.53;;
36547;SDS011;22551;52.206;4.856;2024-03-22T08:08:26;16.20;;;5.30;;
36547;SDS011;22551;52.206;4.856;2024-03-22T08:13:28;13.27;;;5.93;;
36547;SDS011;22551;52.206;4.856;2024-03-22T08:18:30;17.38;;;6.03;;
36547;SDS011;22551;52.206;4.856;2024-03-22T08:23:34;22.38;;;6.35;;
36547;SDS011;22551;52.206;4.856;2024-03-22T08:28:36;16.38;;;6.43;;
36547;SDS011;22551;52.206;4.856;2024-03-22T08:33:39;17.13;;;6.50;;
36547;SDS011;22551;52.206;4.856;2024-03-22T08:38:42;18.77;;;6.40;;
36547;SDS011;22551;52.206;4.856;2024-03-22T08:43:45;17.10;;;6.10;;
36547;SDS011;22551;52.206;4.856;2024-03-22T08:48:47;18.70;;;5.38;;
36547;SDS011;22551;52.206;4.856;2024-03-22T08:53:50;21.95;;;6.38;;
36547;SDS011;22551;52.206;4.856;2024-03-22T08:58:52;18.75;;;6.10;;
36547;SDS011;22551;52.206;4.856;2024-03-22T09:03:55;20.25;;;7.32;;
36547;SDS011;22551;52.206;4.856;2024-03-22T09:08:58;19.05;;;6.13;;
36547;SDS011;22551;52.206;4.856;2024-03-22T09:14:00;13.82;;;6.28;;
36547;SDS011;22551;52.206;4.856;2024-03-22T09:19:02;14.00;;;5.50;;
36547;SDS011;22551;52.206;4.856;2024-03-22T09:24:08;25.00;;;6.75;;
36547;SDS011;22551;52.206;4.856;2024-03-22T09:29:12;15.73;;;6.07;;
36547;SDS011;22551;52.206;4.856;2024-03-22T09:34:14;13.10;;;6.10;;
36547;SDS011;22551;52.206;4.856;2024-03-22T09:39:18;12.73;;;6.07;;
36547;SDS011;22551;52.206;4.856;2024-03-22T09:44:20;19.02;;;6.32;;
36547;SDS011;22551;52.206;4.856;2024-03-22T09:49:24;18.02;;;7.13;;
36547;SDS011;22551;52.206;4.856;2024-03-22T09:54:28;22.50;;;6.57;;
36547;SDS011;22551;52.206;4.856;2024-03-22T09:59:31;13.47;;;6.30;;
36547;SDS011;22551;52.206;4.856;2024-03-22T10:04:33;23.73;;;7.35;;
36547;SDS011;22551;52.206;4.856;2024-03-22T10:09:37;20.88;;;8.30;;
36547;SDS011;22551;52.206;4.856;2024-03-22T10:14:42;20.27;;;6.75;;
36547;SDS011;22551;52.206;4.856;2024-03-22T10:19:44;21.13;;;7.40;;
36547;SDS011;22551;52.206;4.856;2024-03-22T10:24:48;20.38;;;6.90;;
36547;SDS011;22551;52.206;4.856;2024-03-22T10:29:51;18.52;;;5.88;;
36547;SDS011;22551;52.206;4.856;2024-03-22T10:34:53;13.98;;;6.30;;
36547;SDS011;22551;52.206;4.856;2024-03-22T10:39:58;10.10;;;4.55;;
36547;SDS011;22551;52.206;4.856;2024-03-22T10:45:08;13.75;;;5.50;;
36547;SDS011;22551;52.206;4.856;2024-03-22T10:50:11;9.77;;;6.07;;
36547;SDS011;22551;52.206;4.856;2024-03-22T10:55:16;10.95;;;5.45;;
36547;SDS011;22551;52.206;4.856;2024-03-22T11:00:28;14.13;;;6.17;;
36547;SDS011;22551;52.206;4.856;2024-03-22T11:05:31;11.93;;;5.82;;
36547;SDS011;22551;52.206;4.856;2024-03-22T11:10:35;13.65;;;6.38;;
36547;SDS011;22551;52.206;4.856;2024-03-22T11:15:37;12.30;;;6.87;;
36547;SDS011;22551;52.206;4.856;2024-03-22T13:44:23;16.67;;;5.10;;
36547;SDS011;22551;52.206;4.856;2024-03-22T16:11:18;18.75;;;2.70;;
36547;SDS011;22551;52.206;4.856;2024-03-22T16:16:20;12.48;;;3.28;;
36547;SDS011;22551;52.206;4.856;2024-03-22T17:30:08;15.60;;;3.15;;
36547;SDS011;22551;52.206;4.856;2024-03-22T17:35:11;21.10;;;3.00;;
36547;SDS011;22551;52.206;4.856;2024-03-22T17:40:14;17.30;;;3.58;;
36547;SDS011;22551;52.206;4.856;2024-03-22T17:45:18;20.17;;;2.97;;
36547;SDS011;22551;52.206;4.856;2024-03-22T17:50:20;15.48;;;3.80;;
36547;SDS011;22551;52.206;4.856;2024-03-22T17:55:22;14.82;;;3.30;;
36547;SDS011;22551;52.206;4.856;2024-03-22T18:00:27;18.83;;;2.73;;
36547;SDS011;22551;52.206;4.856;2024-03-22T18:05:30;12.82;;;3.80;;
36547;SDS011;22551;52.206;4.856;2024-03-22T18:10:32;12.85;;;3.35;;
36547;SDS011;22551;52.206;4.856;2024-03-22T18:15:38;16.75;;;2.95;;
36547;SDS011;22551;52.206;4.856;2024-03-22T18:20:40;16.02;;;3.58;;
36547;SDS011;22551;52.206;4.856;2024-03-22T18:25:42;11.63;;;2.72;;
36547;SDS011;22551;52.206;4.856;2024-03-22T18:30:46;23.40;;;4.57;;
36547;SDS011;22551;52.206;4.856;2024-03-22T18:35:48;17.85;;;3.63;;
